createdAt,value
2018-07-31T00:00:08.223Z,3.70
2018-07-31T00:01:08.124Z,4.30
2018-07-31T00:02:07.979Z,3.70
2018-07-31T00:03:07.865Z,4.00
2018-07-31T00:04:07.743Z,4.20
2018-07-31T00:05:07.621Z,4.10
2018-07-31T00:06:07.497Z,4.20
2018-07-31T00:07:07.373Z,4.80
2018-07-31T00:08:07.271Z,4.80
2018-07-31T00:09:07.134Z,4.40
2018-07-31T00:10:07.014Z,4.30
2018-07-31T00:11:06.890Z,4.60
2018-07-31T00:12:06.769Z,4.40
2018-07-31T00:13:06.648Z,4.40
2018-07-31T00:14:06.529Z,4.80
2018-07-31T00:15:06.406Z,4.50
2018-07-31T00:16:06.289Z,4.50
2018-07-31T00:17:06.165Z,4.20
2018-07-31T00:18:06.044Z,4.50
2018-07-31T00:19:05.922Z,4.40
2018-07-31T00:20:05.804Z,4.30
2018-07-31T00:21:05.682Z,4.60
2018-07-31T00:22:05.561Z,4.30
2018-07-31T00:23:05.439Z,4.40
2018-07-31T00:24:05.319Z,4.80
2018-07-31T00:25:05.197Z,4.50
2018-07-31T00:26:05.075Z,4.90
2018-07-31T00:27:04.955Z,4.20
2018-07-31T00:28:04.833Z,4.80
2018-07-31T00:29:04.716Z,4.60
2018-07-31T00:30:04.590Z,4.80
2018-07-31T00:31:04.475Z,4.30
2018-07-31T00:32:04.349Z,4.70
2018-07-31T00:33:04.229Z,4.60
2018-07-31T00:34:04.106Z,4.80
2018-07-31T00:35:03.985Z,4.40
2018-07-31T00:36:03.865Z,4.90
2018-07-31T00:37:03.743Z,4.90
2018-07-31T00:38:03.624Z,4.80
2018-07-31T00:39:03.502Z,4.80
2018-07-31T00:40:03.379Z,4.70
2018-07-31T00:41:03.259Z,4.70
2018-07-31T00:42:03.139Z,4.80
2018-07-31T00:43:03.016Z,4.90
2018-07-31T00:44:02.899Z,4.80
2018-07-31T00:45:02.775Z,4.70
2018-07-31T00:46:02.654Z,4.70
2018-07-31T00:47:02.533Z,5.00
2018-07-31T00:48:02.417Z,4.80
2018-07-31T00:49:02.290Z,5.00
2018-07-31T00:50:02.167Z,5.20
2018-07-31T00:51:02.049Z,4.50
2018-07-31T00:52:01.936Z,4.90
2018-07-31T00:53:01.810Z,4.50
2018-07-31T00:54:01.682Z,4.70
2018-07-31T00:55:01.563Z,4.70
2018-07-31T00:56:01.445Z,5.00
2018-07-31T00:57:01.319Z,4.80
2018-07-31T00:58:01.198Z,4.50
2018-07-31T00:59:01.077Z,4.40
2018-07-31T01:00:00.954Z,4.40
2018-07-31T01:01:00.838Z,4.80
2018-07-31T01:02:00.714Z,4.40
2018-07-31T01:03:00.591Z,4.60
2018-07-31T01:04:00.471Z,4.40
2018-07-31T01:05:00.349Z,5.10
2018-07-31T01:06:00.228Z,4.40
2018-07-31T01:07:00.107Z,4.50
2018-07-31T01:07:59.985Z,4.50
2018-07-31T01:08:59.868Z,4.50
2018-07-31T01:09:59.743Z,4.90
2018-07-31T01:10:59.707Z,4.50
2018-07-31T01:11:59.499Z,4.60
2018-07-31T01:12:59.379Z,4.70
2018-07-31T01:13:59.259Z,4.80
2018-07-31T01:14:59.137Z,4.40
2018-07-31T01:15:59.016Z,4.40
2018-07-31T01:16:58.893Z,4.60
2018-07-31T01:17:58.774Z,4.60
2018-07-31T01:18:58.655Z,4.50
2018-07-31T01:19:58.530Z,4.80
2018-07-31T01:20:58.409Z,4.60
2018-07-31T01:21:58.288Z,4.90
2018-07-31T01:22:58.167Z,4.70
2018-07-31T01:23:58.046Z,4.50
2018-07-31T01:24:57.925Z,4.70
2018-07-31T01:25:57.803Z,4.40
2018-07-31T01:26:57.682Z,4.40
2018-07-31T01:27:57.561Z,5.00
2018-07-31T01:28:57.442Z,4.50
2018-07-31T01:29:57.319Z,4.40
2018-07-31T01:30:57.202Z,4.90
2018-07-31T01:31:57.080Z,4.50
2018-07-31T01:32:56.956Z,4.70
2018-07-31T01:33:56.835Z,4.60
2018-07-31T01:34:56.714Z,4.50
2018-07-31T01:35:56.594Z,5.00
2018-07-31T01:36:56.474Z,4.70
2018-07-31T01:37:56.348Z,5.10
2018-07-31T01:38:56.231Z,4.90
2018-07-31T01:39:56.113Z,5.00
2018-07-31T01:40:55.986Z,4.90
2018-07-31T01:41:55.864Z,5.00
2018-07-31T01:42:55.744Z,4.90
2018-07-31T01:43:55.620Z,4.90
2018-07-31T01:44:55.501Z,4.40
2018-07-31T01:45:55.392Z,4.70
2018-07-31T01:46:55.257Z,4.70
2018-07-31T01:47:55.137Z,4.90
2018-07-31T01:48:55.017Z,4.90
2018-07-31T01:49:54.895Z,4.90
2018-07-31T01:50:54.772Z,4.40
2018-07-31T01:51:54.652Z,4.70
2018-07-31T01:52:54.532Z,5.00
2018-07-31T01:53:54.408Z,4.90
2018-07-31T01:54:54.290Z,5.00
2018-07-31T01:55:54.171Z,4.60
2018-07-31T01:56:54.047Z,5.10
2018-07-31T01:57:53.923Z,5.20
2018-07-31T01:58:53.804Z,5.10
2018-07-31T01:59:53.681Z,4.80
2018-07-31T02:00:53.560Z,5.30
2018-07-31T02:01:53.440Z,4.90
2018-07-31T02:02:53.318Z,5.00
2018-07-31T02:03:53.200Z,5.30
2018-07-31T02:04:53.076Z,5.30
2018-07-31T02:05:52.958Z,4.90
2018-07-31T02:06:52.831Z,5.00
2018-07-31T02:07:52.715Z,4.60
2018-07-31T02:08:52.594Z,5.00
2018-07-31T02:09:52.469Z,4.40
2018-07-31T02:10:52.346Z,4.40
2018-07-31T02:11:52.226Z,4.70
2018-07-31T02:12:52.105Z,4.60
2018-07-31T02:13:51.983Z,4.80
2018-07-31T02:14:51.865Z,4.50
2018-07-31T02:15:51.741Z,5.10
2018-07-31T02:16:51.619Z,4.90
2018-07-31T02:17:51.500Z,5.10
2018-07-31T02:18:51.377Z,4.60
2018-07-31T02:19:51.255Z,5.20
2018-07-31T02:20:51.135Z,4.90
2018-07-31T02:21:51.014Z,4.70
2018-07-31T02:22:50.893Z,4.90
2018-07-31T02:23:50.769Z,5.10
2018-07-31T02:24:50.650Z,4.80
2018-07-31T02:25:50.527Z,4.60
2018-07-31T02:26:50.407Z,4.60
2018-07-31T02:27:50.314Z,4.60
2018-07-31T02:28:50.166Z,4.90
2018-07-31T02:29:50.043Z,4.80
2018-07-31T02:30:49.929Z,4.80
2018-07-31T02:31:49.802Z,5.10
2018-07-31T02:32:49.681Z,4.50
2018-07-31T02:33:49.558Z,4.90
2018-07-31T02:34:49.437Z,4.80
2018-07-31T02:35:49.320Z,4.90
2018-07-31T02:36:49.197Z,4.60
2018-07-31T02:37:49.079Z,4.60
2018-07-31T02:38:48.951Z,4.80
2018-07-31T02:39:48.833Z,4.70
2018-07-31T02:40:48.709Z,5.10
2018-07-31T02:41:48.586Z,5.20
2018-07-31T02:42:48.470Z,5.00
2018-07-31T02:43:48.348Z,5.10
2018-07-31T02:44:48.223Z,4.80
2018-07-31T02:45:48.104Z,5.20
2018-07-31T02:46:48.068Z,5.40
2018-07-31T02:47:47.860Z,5.30
2018-07-31T02:48:47.740Z,5.30
2018-07-31T02:49:47.616Z,5.10
2018-07-31T02:50:47.494Z,5.30
2018-07-31T02:51:47.374Z,5.30
2018-07-31T02:52:47.255Z,5.60
2018-07-31T02:53:47.134Z,5.10
2018-07-31T02:54:47.011Z,5.60
2018-07-31T02:55:46.891Z,5.60
2018-07-31T02:56:46.766Z,5.50
2018-07-31T02:57:46.650Z,5.30
2018-07-31T02:58:46.523Z,5.20
2018-07-31T02:59:46.403Z,5.30
2018-07-31T03:00:46.282Z,5.60
2018-07-31T03:01:46.160Z,5.60
2018-07-31T03:02:46.040Z,5.20
2018-07-31T03:03:45.919Z,5.40
2018-07-31T03:04:45.795Z,5.50
2018-07-31T03:05:45.676Z,5.40
2018-07-31T03:06:45.554Z,5.40
2018-07-31T03:07:45.440Z,5.50
2018-07-31T03:08:45.322Z,5.90
2018-07-31T03:09:45.191Z,5.70
2018-07-31T03:10:45.066Z,5.80
2018-07-31T03:11:44.944Z,5.60
2018-07-31T03:12:44.826Z,5.50
2018-07-31T03:13:44.701Z,5.60
2018-07-31T03:14:44.582Z,5.70
2018-07-31T03:15:44.461Z,5.30
2018-07-31T03:16:44.338Z,5.60
2018-07-31T03:17:44.215Z,5.60
2018-07-31T03:18:44.095Z,5.40
2018-07-31T03:19:43.975Z,5.60
2018-07-31T03:20:43.852Z,5.40
2018-07-31T03:21:43.729Z,5.40
2018-07-31T03:22:43.609Z,5.60
2018-07-31T03:23:43.493Z,5.40
2018-07-31T03:24:43.369Z,5.90
2018-07-31T03:25:43.242Z,5.80
2018-07-31T03:26:43.121Z,5.20
2018-07-31T03:27:43.000Z,5.50
2018-07-31T03:28:42.879Z,5.40
2018-07-31T03:29:42.763Z,5.70
2018-07-31T03:30:42.648Z,5.40
2018-07-31T03:31:42.515Z,5.20
2018-07-31T03:32:42.394Z,5.40
2018-07-31T03:33:42.270Z,5.50
2018-07-31T03:34:42.151Z,5.30
2018-07-31T03:35:42.031Z,5.80
2018-07-31T03:36:41.910Z,5.50
2018-07-31T03:37:41.788Z,5.20
2018-07-31T03:38:41.665Z,5.80
2018-07-31T03:39:41.542Z,5.30
2018-07-31T03:40:41.426Z,6.10
2018-07-31T03:41:41.300Z,5.60
2018-07-31T03:42:41.180Z,5.30
2018-07-31T03:43:41.056Z,5.90
2018-07-31T03:44:40.935Z,5.50
2018-07-31T03:45:40.812Z,5.50
2018-07-31T03:46:40.690Z,5.80
2018-07-31T03:47:40.572Z,5.60
2018-07-31T03:48:40.448Z,5.50
2018-07-31T03:49:40.326Z,5.10
2018-07-31T03:50:40.204Z,5.20
2018-07-31T03:51:40.092Z,5.20
2018-07-31T03:52:39.963Z,5.50
2018-07-31T03:53:39.840Z,5.10
2018-07-31T03:54:39.720Z,5.10
2018-07-31T03:55:39.611Z,5.10
2018-07-31T03:56:39.476Z,5.40
2018-07-31T03:57:39.353Z,5.40
2018-07-31T03:58:39.236Z,5.50
2018-07-31T03:59:39.116Z,5.30
2018-07-31T04:00:38.992Z,5.10
2018-07-31T04:01:38.867Z,5.30
2018-07-31T04:02:38.747Z,5.40
2018-07-31T04:03:38.626Z,5.20
2018-07-31T04:04:38.509Z,5.50
2018-07-31T04:05:38.383Z,5.20
2018-07-31T04:06:38.259Z,5.10
2018-07-31T04:07:38.139Z,5.20
2018-07-31T04:08:38.019Z,5.40
2018-07-31T04:09:37.895Z,5.40
2018-07-31T04:10:37.778Z,5.50
2018-07-31T04:11:37.653Z,5.80
2018-07-31T04:12:37.531Z,5.30
2018-07-31T04:13:37.411Z,5.40
2018-07-31T04:14:37.291Z,5.70
2018-07-31T04:15:37.166Z,5.40
2018-07-31T04:16:37.046Z,5.80
2018-07-31T04:17:36.930Z,5.50
2018-07-31T04:18:36.803Z,5.70
2018-07-31T04:19:36.681Z,5.50
2018-07-31T04:20:36.562Z,5.70
2018-07-31T04:21:36.438Z,5.60
2018-07-31T04:22:36.358Z,5.40
2018-07-31T04:23:36.208Z,6.00
2018-07-31T04:24:36.076Z,5.60
2018-07-31T04:25:35.951Z,5.70
2018-07-31T04:26:35.828Z,5.30
2018-07-31T04:27:35.709Z,5.90
2018-07-31T04:28:35.591Z,5.40
2018-07-31T04:29:35.465Z,5.30
2018-07-31T04:30:35.344Z,5.50
2018-07-31T04:31:35.220Z,5.90
2018-07-31T04:32:35.117Z,5.60
2018-07-31T04:33:34.982Z,5.60
2018-07-31T04:34:34.857Z,5.40
2018-07-31T04:35:34.740Z,5.70
2018-07-31T04:36:34.614Z,5.20
2018-07-31T04:37:34.493Z,5.70
2018-07-31T04:38:34.371Z,6.00
2018-07-31T04:39:34.248Z,5.80
2018-07-31T04:40:34.128Z,5.70
2018-07-31T04:41:34.009Z,5.40
2018-07-31T04:42:33.887Z,5.40
2018-07-31T04:43:33.761Z,5.60
2018-07-31T04:44:33.642Z,5.40
2018-07-31T04:45:33.518Z,5.50
2018-07-31T04:46:33.399Z,5.20
2018-07-31T04:47:33.276Z,5.30
2018-07-31T04:48:33.155Z,5.50
2018-07-31T04:49:33.032Z,5.10
2018-07-31T04:50:32.911Z,5.10
2018-07-31T04:51:32.790Z,5.10
2018-07-31T04:52:32.669Z,5.20
2018-07-31T04:53:32.546Z,5.30
2018-07-31T04:54:32.433Z,5.00
2018-07-31T04:55:32.307Z,5.20
2018-07-31T04:56:32.185Z,5.30
2018-07-31T04:57:32.061Z,4.90
2018-07-31T04:58:31.939Z,5.50
2018-07-31T04:59:31.818Z,4.90
2018-07-31T05:00:31.697Z,5.20
2018-07-31T05:01:31.575Z,5.40
2018-07-31T05:02:31.462Z,5.00
2018-07-31T05:03:31.335Z,5.40
2018-07-31T05:04:31.213Z,5.30
2018-07-31T05:05:31.092Z,5.20
2018-07-31T05:06:31.023Z,5.20
2018-07-31T05:07:30.849Z,5.70
2018-07-31T05:08:30.734Z,5.60
2018-07-31T05:09:30.607Z,5.70
2018-07-31T05:10:30.488Z,5.20
2018-07-31T05:11:30.366Z,5.40
2018-07-31T05:12:30.247Z,5.40
2018-07-31T05:13:30.125Z,5.50
2018-07-31T05:14:30.009Z,5.30
2018-07-31T05:15:29.885Z,6.20
2018-07-31T05:16:29.765Z,5.60
2018-07-31T05:17:29.677Z,5.30
2018-07-31T05:18:29.526Z,6.10
2018-07-31T05:19:29.404Z,5.90
2018-07-31T05:20:29.289Z,5.80
2018-07-31T05:21:29.171Z,5.40
2018-07-31T05:22:29.043Z,5.30
2018-07-31T05:23:28.925Z,5.50
2018-07-31T05:24:28.808Z,5.60
2018-07-31T05:25:28.684Z,5.90
2018-07-31T05:26:28.566Z,5.70
2018-07-31T05:27:28.446Z,5.40
2018-07-31T05:28:28.323Z,5.60
2018-07-31T05:29:28.203Z,5.20
2018-07-31T05:30:28.085Z,5.40
2018-07-31T05:31:27.964Z,5.10
2018-07-31T05:32:27.862Z,5.40
2018-07-31T05:33:27.724Z,5.50
2018-07-31T05:34:27.605Z,5.90
2018-07-31T05:35:27.487Z,6.10
2018-07-31T05:36:27.366Z,6.00
2018-07-31T05:37:27.244Z,5.50
2018-07-31T05:38:27.129Z,5.80
2018-07-31T05:39:27.017Z,5.80
2018-07-31T05:40:26.887Z,5.70
2018-07-31T05:41:26.809Z,5.50
2018-07-31T05:42:26.646Z,5.50
2018-07-31T05:43:26.527Z,5.70
2018-07-31T05:44:26.410Z,5.60
2018-07-31T05:45:26.294Z,5.50
2018-07-31T05:46:26.167Z,5.80
2018-07-31T05:47:26.048Z,5.70
2018-07-31T05:48:25.929Z,5.80
2018-07-31T05:49:25.809Z,5.60
2018-07-31T05:50:25.688Z,5.70
2018-07-31T05:51:25.620Z,5.50
2018-07-31T05:52:25.455Z,5.60
2018-07-31T05:53:25.334Z,5.40
2018-07-31T05:54:25.211Z,6.00
2018-07-31T05:55:25.091Z,5.70
2018-07-31T05:56:24.971Z,5.50
2018-07-31T05:57:24.868Z,5.70
2018-07-31T05:58:24.732Z,5.50
2018-07-31T05:59:24.611Z,5.50
2018-07-31T06:00:24.493Z,6.00
2018-07-31T06:01:24.373Z,5.90
2018-07-31T06:02:24.254Z,6.00
2018-07-31T06:03:24.188Z,5.30
2018-07-31T06:04:24.016Z,5.50
2018-07-31T06:05:23.893Z,5.90
2018-07-31T06:06:23.775Z,5.50
2018-07-31T06:07:23.655Z,5.90
2018-07-31T06:08:23.544Z,5.90
2018-07-31T06:09:23.417Z,5.60
2018-07-31T06:10:23.299Z,6.30
2018-07-31T06:11:23.187Z,5.60
2018-07-31T06:12:23.061Z,5.80
2018-07-31T06:13:22.941Z,5.20
2018-07-31T06:14:22.822Z,5.70
2018-07-31T06:15:22.747Z,5.50
2018-07-31T06:16:22.584Z,5.40
2018-07-31T06:17:22.466Z,5.20
2018-07-31T06:18:22.348Z,5.60
2018-07-31T06:19:22.227Z,5.10
2018-07-31T06:20:22.108Z,5.40
2018-07-31T06:21:21.987Z,5.10
2018-07-31T06:22:21.868Z,5.30
2018-07-31T06:23:21.752Z,5.50
2018-07-31T06:24:21.632Z,5.60
2018-07-31T06:25:21.511Z,5.00
2018-07-31T06:26:21.395Z,5.80
2018-07-31T06:27:21.276Z,5.70
2018-07-31T06:28:21.158Z,6.10
2018-07-31T06:29:21.038Z,5.80
2018-07-31T06:30:20.922Z,5.80
2018-07-31T06:31:20.802Z,5.30
2018-07-31T06:32:20.683Z,5.30
2018-07-31T06:33:20.566Z,5.80
2018-07-31T06:34:20.446Z,5.50
2018-07-31T06:35:20.329Z,5.70
2018-07-31T06:36:20.211Z,5.60
2018-07-31T06:37:20.093Z,5.90
2018-07-31T06:38:19.973Z,5.90
2018-07-31T06:39:19.856Z,5.80
2018-07-31T06:40:19.738Z,5.20
2018-07-31T06:41:19.618Z,5.50
2018-07-31T06:42:19.500Z,5.70
2018-07-31T06:43:19.383Z,4.90
2018-07-31T06:44:19.273Z,5.40
2018-07-31T06:45:19.147Z,5.50
2018-07-31T06:46:19.028Z,5.60
2018-07-31T06:47:18.909Z,5.80
2018-07-31T06:48:18.791Z,5.40
2018-07-31T06:49:18.676Z,5.20
2018-07-31T06:50:18.556Z,5.90
2018-07-31T06:51:18.438Z,5.50
2018-07-31T06:52:18.323Z,5.60
2018-07-31T06:53:18.204Z,5.70
2018-07-31T06:54:18.082Z,5.90
2018-07-31T06:55:17.964Z,6.20
2018-07-31T06:56:17.844Z,5.60
2018-07-31T06:57:17.727Z,5.40
2018-07-31T06:58:17.612Z,6.10
2018-07-31T06:59:17.492Z,5.40
2018-07-31T07:00:17.376Z,5.70
2018-07-31T07:01:17.273Z,5.60
2018-07-31T07:02:17.193Z,6.00
2018-07-31T07:03:17.862Z,5.60
2018-07-31T07:04:16.904Z,5.70
2018-07-31T07:05:16.785Z,5.70
2018-07-31T07:06:16.666Z,5.60
2018-07-31T07:07:16.546Z,6.20
2018-07-31T07:08:16.428Z,4.60
2018-07-31T07:09:16.344Z,5.70
2018-07-31T07:10:16.192Z,5.30
2018-07-31T07:11:16.078Z,5.50
2018-07-31T07:12:15.958Z,5.70
2018-07-31T07:13:15.839Z,5.40
2018-07-31T07:14:15.725Z,5.50
2018-07-31T07:15:15.606Z,5.20
2018-07-31T07:16:15.487Z,5.60
2018-07-31T07:17:15.369Z,5.00
2018-07-31T07:18:15.250Z,5.10
2018-07-31T07:19:15.133Z,5.70
2018-07-31T07:20:15.018Z,5.40
2018-07-31T07:21:14.897Z,5.70
2018-07-31T07:22:14.783Z,5.30
2018-07-31T07:23:14.664Z,5.40
2018-07-31T07:24:14.545Z,5.20
2018-07-31T07:25:14.428Z,5.50
2018-07-31T07:26:14.310Z,5.70
2018-07-31T07:27:14.192Z,5.50
2018-07-31T07:28:14.085Z,5.50
2018-07-31T07:29:13.956Z,5.80
2018-07-31T07:30:13.842Z,5.60
2018-07-31T07:31:13.725Z,5.30
2018-07-31T07:32:13.614Z,5.70
2018-07-31T07:33:13.490Z,5.50
2018-07-31T07:34:13.372Z,5.50
2018-07-31T07:35:13.259Z,5.90
2018-07-31T07:36:13.135Z,5.30
2018-07-31T07:37:13.019Z,5.50
2018-07-31T07:38:12.900Z,5.50
2018-07-31T07:39:12.782Z,5.50
2018-07-31T07:40:12.691Z,5.90
2018-07-31T07:41:12.551Z,5.40
2018-07-31T07:42:12.431Z,5.30
2018-07-31T07:43:12.316Z,5.30
2018-07-31T07:44:12.201Z,5.40
2018-07-31T07:45:12.083Z,5.20
2018-07-31T07:46:11.964Z,5.50
2018-07-31T07:47:11.847Z,5.60
2018-07-31T07:48:11.733Z,5.50
2018-07-31T07:49:11.611Z,5.40
2018-07-31T07:50:11.497Z,5.30
2018-07-31T07:51:11.380Z,5.60
2018-07-31T07:52:11.264Z,5.50
2018-07-31T07:53:11.144Z,5.40
2018-07-31T07:54:11.131Z,5.90
2018-07-31T07:55:10.918Z,5.20
2018-07-31T07:56:10.796Z,5.40
2018-07-31T07:57:10.680Z,5.40
2018-07-31T07:58:10.564Z,5.00
2018-07-31T07:59:10.446Z,5.00
2018-07-31T08:00:10.333Z,5.20
2018-07-31T08:01:10.213Z,5.30
2018-07-31T08:02:10.099Z,5.50
2018-07-31T08:03:09.988Z,5.70
2018-07-31T08:04:09.965Z,5.40
2018-07-31T08:05:09.748Z,5.80
2018-07-31T08:06:09.632Z,5.40
2018-07-31T08:07:09.516Z,5.60
2018-07-31T08:08:09.399Z,5.40
2018-07-31T08:09:09.286Z,5.60
2018-07-31T08:10:09.167Z,5.90
2018-07-31T08:11:09.050Z,5.40
2018-07-31T08:12:08.933Z,5.40
2018-07-31T08:13:08.816Z,5.30
2018-07-31T08:14:08.701Z,5.20
2018-07-31T08:15:08.641Z,5.30
2018-07-31T08:16:08.469Z,5.10
2018-07-31T08:17:08.353Z,5.00
2018-07-31T08:18:08.236Z,5.30
2018-07-31T08:19:08.122Z,5.10
2018-07-31T08:20:08.006Z,5.00
2018-07-31T08:21:07.888Z,5.10
2018-07-31T08:22:07.775Z,5.40
2018-07-31T08:23:07.656Z,5.20
2018-07-31T08:24:07.540Z,5.00
2018-07-31T08:25:07.428Z,5.30
2018-07-31T08:26:07.308Z,5.50
2018-07-31T08:27:07.195Z,5.40
2018-07-31T08:28:07.076Z,5.30
2018-07-31T08:29:06.960Z,5.40
2018-07-31T08:30:06.845Z,4.90
2018-07-31T08:31:06.732Z,5.10
2018-07-31T08:32:06.614Z,5.20
2018-07-31T08:33:06.498Z,5.20
2018-07-31T08:34:06.382Z,5.20
2018-07-31T08:35:06.266Z,5.10
2018-07-31T08:36:06.154Z,4.90
2018-07-31T08:37:06.038Z,4.90
2018-07-31T08:38:05.918Z,5.00
2018-07-31T08:39:05.804Z,4.90
2018-07-31T08:40:05.692Z,4.70
2018-07-31T08:41:05.572Z,5.00
2018-07-31T08:42:05.458Z,4.90
2018-07-31T08:43:05.345Z,4.60
2018-07-31T08:44:05.228Z,4.70
2018-07-31T08:45:05.114Z,4.90
2018-07-31T08:46:04.998Z,5.30
2018-07-31T08:47:04.882Z,5.20
2018-07-31T08:48:04.766Z,4.50
2018-07-31T08:49:04.653Z,4.80
2018-07-31T08:50:04.534Z,5.00
2018-07-31T08:51:04.421Z,4.70
2018-07-31T08:52:04.311Z,4.70
2018-07-31T08:53:04.194Z,4.70
2018-07-31T08:54:04.077Z,4.90
2018-07-31T08:55:03.966Z,5.10
2018-07-31T08:56:03.852Z,4.60
2018-07-31T08:57:03.753Z,4.80
2018-07-31T08:58:03.619Z,4.90
2018-07-31T08:59:03.505Z,4.70
2018-07-31T09:00:03.395Z,4.70
2018-07-31T09:01:03.273Z,4.60
2018-07-31T09:02:03.157Z,4.70
2018-07-31T09:03:03.048Z,4.90
2018-07-31T09:04:02.930Z,4.90
2018-07-31T09:05:02.816Z,5.00
2018-07-31T09:06:02.703Z,4.80
2018-07-31T09:07:02.587Z,4.80
2018-07-31T09:08:02.474Z,5.10
2018-07-31T09:09:02.357Z,4.80
2018-07-31T09:10:02.242Z,5.00
2018-07-31T09:11:02.131Z,4.70
2018-07-31T09:12:02.018Z,4.80
2018-07-31T09:13:01.898Z,4.70
2018-07-31T09:14:01.791Z,4.60
2018-07-31T09:15:01.674Z,4.40
2018-07-31T09:16:01.558Z,4.80
2018-07-31T09:17:01.444Z,4.20
2018-07-31T09:18:01.337Z,4.50
2018-07-31T09:19:01.217Z,4.60
2018-07-31T09:20:01.102Z,4.70
2018-07-31T09:21:00.991Z,4.40
2018-07-31T09:22:00.879Z,4.50
2018-07-31T09:23:00.760Z,4.30
2018-07-31T09:24:00.648Z,4.30
2018-07-31T09:25:00.533Z,4.40
2018-07-31T09:26:00.420Z,4.50
2018-07-31T09:27:00.447Z,4.40
2018-07-31T09:28:00.194Z,4.40
2018-07-31T09:29:00.078Z,4.30
2018-07-31T09:29:59.962Z,4.40
2018-07-31T09:31:00.154Z,4.60
2018-07-31T09:31:59.736Z,4.50
2018-07-31T09:32:59.626Z,4.50
2018-07-31T09:33:59.508Z,4.50
2018-07-31T09:34:59.403Z,4.40
2018-07-31T09:35:59.281Z,4.30
2018-07-31T09:36:59.169Z,4.10
2018-07-31T09:37:59.077Z,4.70
2018-07-31T09:38:58.940Z,4.50
2018-07-31T09:39:58.825Z,4.20
2018-07-31T09:40:58.716Z,4.50
2018-07-31T09:41:58.597Z,4.40
2018-07-31T09:42:58.486Z,4.10
2018-07-31T09:43:58.372Z,4.00
2018-07-31T09:44:58.262Z,4.10
2018-07-31T09:45:58.144Z,4.40
2018-07-31T09:46:58.033Z,3.80
2018-07-31T09:47:57.917Z,3.70
2018-07-31T09:48:57.801Z,4.10
2018-07-31T09:49:57.692Z,3.80
2018-07-31T09:50:57.576Z,4.00
2018-07-31T09:51:57.461Z,4.40
2018-07-31T09:52:57.349Z,4.20
2018-07-31T09:53:57.234Z,4.30
2018-07-31T09:54:57.123Z,4.10
2018-07-31T09:55:57.006Z,4.10
2018-07-31T09:56:56.894Z,4.40
2018-07-31T09:57:56.778Z,3.90
2018-07-31T09:58:56.666Z,4.50
2018-07-31T09:59:56.553Z,3.90
2018-07-31T10:00:56.440Z,4.30
2018-07-31T10:01:56.324Z,3.90
2018-07-31T10:02:56.213Z,3.70
2018-07-31T10:03:56.100Z,4.60
2018-07-31T10:04:55.994Z,4.40
2018-07-31T10:05:55.876Z,4.50
2018-07-31T10:06:55.759Z,4.40
2018-07-31T10:07:55.647Z,4.20
2018-07-31T10:08:55.532Z,4.10
2018-07-31T10:09:55.426Z,4.30
2018-07-31T10:10:55.307Z,4.40
2018-07-31T10:11:55.271Z,4.20
2018-07-31T10:12:55.083Z,4.20
2018-07-31T10:13:54.968Z,4.10
2018-07-31T10:14:54.856Z,4.20
2018-07-31T10:15:54.746Z,4.10
2018-07-31T10:16:54.636Z,4.20
2018-07-31T10:17:54.558Z,4.20
2018-07-31T10:18:54.415Z,4.10
2018-07-31T10:19:54.297Z,4.00
2018-07-31T10:20:54.184Z,4.10
2018-07-31T10:21:54.073Z,4.50
2018-07-31T10:22:53.964Z,4.00
2018-07-31T10:23:53.850Z,4.00
2018-07-31T10:24:53.739Z,4.30
2018-07-31T10:25:53.624Z,4.10
2018-07-31T10:26:53.519Z,4.40
2018-07-31T10:27:53.402Z,4.00
2018-07-31T10:28:53.289Z,4.00
2018-07-31T10:29:53.182Z,4.30
2018-07-31T10:30:53.142Z,3.90
2018-07-31T10:32:00.945Z,4.10
2018-07-31T10:33:45.671Z,3.90
2018-07-31T10:34:45.521Z,3.90
2018-07-31T10:36:38.210Z,4.00
2018-07-31T10:37:38.200Z,4.10
2018-07-31T10:39:30.835Z,4.30
2018-07-31T10:40:30.656Z,4.40
2018-07-31T10:42:23.374Z,4.50
2018-07-31T10:43:23.227Z,4.20
2018-07-31T10:45:15.945Z,4.00
2018-07-31T10:46:15.796Z,4.20
2018-07-31T10:48:08.595Z,3.90
2018-07-31T10:49:08.444Z,4.00
2018-07-31T10:51:01.318Z,4.40
2018-07-31T10:52:01.014Z,4.40
2018-07-31T10:54:08.776Z,4.20
2018-07-31T10:55:08.674Z,4.10
2018-07-31T10:57:01.374Z,4.10
2018-07-31T10:58:01.271Z,4.20
2018-07-31T10:59:53.930Z,4.00
2018-07-31T11:00:53.795Z,4.20
2018-07-31T11:02:46.537Z,4.00
2018-07-31T11:03:46.365Z,4.30
2018-07-31T11:05:39.046Z,4.60
2018-07-31T11:06:38.924Z,4.30
2018-07-31T11:08:31.649Z,4.00
2018-07-31T11:09:31.497Z,4.20
2018-07-31T11:11:24.184Z,4.30
2018-07-31T11:12:24.062Z,4.40
2018-07-31T11:14:17.629Z,4.60
2018-07-31T11:15:17.477Z,5.10
2018-07-31T11:17:10.168Z,4.80
2018-07-31T11:18:10.044Z,4.60
2018-07-31T11:20:02.766Z,4.70
2018-07-31T11:21:02.681Z,4.70
2018-07-31T11:22:55.936Z,5.70
2018-07-31T11:23:55.179Z,5.80
2018-07-31T11:25:47.895Z,4.60
2018-07-31T11:26:47.743Z,4.60
2018-07-31T11:28:40.430Z,4.50
2018-07-31T11:29:40.307Z,4.70
2018-07-31T11:31:48.103Z,4.50
2018-07-31T11:32:47.943Z,4.40
2018-07-31T11:34:40.632Z,4.20
2018-07-31T11:35:40.509Z,4.30
2018-07-31T11:37:33.226Z,4.20
2018-07-31T11:38:33.156Z,4.30
2018-07-31T11:40:25.759Z,4.20
2018-07-31T11:41:25.637Z,4.50
2018-07-31T11:43:18.401Z,4.60
2018-07-31T11:44:18.252Z,4.40
2018-07-31T11:46:10.940Z,4.00
2018-07-31T11:47:10.821Z,4.20
2018-07-31T11:49:18.634Z,4.10
2018-07-31T11:50:18.602Z,4.20
2018-07-31T11:52:11.202Z,4.10
2018-07-31T11:53:11.056Z,4.00
2018-07-31T11:55:03.822Z,3.90
2018-07-31T11:56:03.656Z,3.90
2018-07-31T11:57:56.374Z,3.60
2018-07-31T11:58:56.222Z,3.80
2018-07-31T12:00:49.127Z,3.60
2018-07-31T12:01:48.815Z,3.80
2018-07-31T12:03:41.845Z,3.40
2018-07-31T12:04:48.535Z,3.30
2018-07-31T12:06:35.059Z,3.80
2018-07-31T12:07:34.884Z,3.70
2018-07-31T12:09:27.556Z,3.70
2018-07-31T12:10:27.406Z,3.90
2018-07-31T12:12:20.103Z,3.60
2018-07-31T12:13:19.984Z,3.50
2018-07-31T12:15:12.899Z,3.70
2018-07-31T12:16:12.562Z,3.60
2018-07-31T12:18:06.106Z,4.00
2018-07-31T12:19:06.026Z,4.40
2018-07-31T12:20:58.793Z,4.60
2018-07-31T12:21:58.566Z,4.20
2018-07-31T12:23:51.262Z,4.60
2018-07-31T12:24:51.142Z,4.60
2018-07-31T12:26:43.869Z,4.60
2018-07-31T12:27:43.714Z,4.50
2018-07-31T12:29:37.554Z,4.60
2018-07-31T12:30:37.136Z,4.50
2018-07-31T12:32:29.866Z,4.50
2018-07-31T12:33:29.713Z,4.70
2018-07-31T12:35:22.454Z,4.70
2018-07-31T12:36:22.286Z,4.40
2018-07-31T12:38:15.193Z,4.10
2018-07-31T12:39:14.980Z,4.20
2018-07-31T12:41:07.780Z,4.50
2018-07-31T12:42:07.717Z,4.50
2018-07-31T12:44:00.436Z,4.60
2018-07-31T12:45:00.233Z,4.40
2018-07-31T12:46:52.919Z,4.50
2018-07-31T12:47:52.796Z,4.50
2018-07-31T12:49:45.517Z,4.80
2018-07-31T12:50:45.369Z,5.10
2018-07-31T12:52:38.058Z,4.90
2018-07-31T12:53:37.937Z,5.00
2018-07-31T12:55:30.654Z,4.90
2018-07-31T12:56:30.503Z,4.50
2018-07-31T12:58:23.191Z,4.40
2018-07-31T12:59:23.070Z,4.40
2018-07-31T13:01:15.791Z,4.70
2018-07-31T13:02:15.638Z,4.70
2018-07-31T13:04:08.327Z,4.70
2018-07-31T13:05:08.205Z,4.30
2018-07-31T13:07:00.934Z,4.50
2018-07-31T13:08:00.779Z,4.20
2018-07-31T13:09:53.498Z,4.20
2018-07-31T13:10:53.345Z,4.40
2018-07-31T13:12:46.063Z,4.10
2018-07-31T13:13:45.914Z,4.40
2018-07-31T13:15:38.608Z,4.10
2018-07-31T13:16:38.485Z,4.00
2018-07-31T13:18:31.203Z,4.60
2018-07-31T13:19:31.057Z,4.30
2018-07-31T13:21:23.800Z,4.10
2018-07-31T13:22:23.632Z,4.20
2018-07-31T13:24:16.375Z,4.00
2018-07-31T13:25:16.230Z,4.00
2018-07-31T13:27:08.953Z,4.20
2018-07-31T13:28:08.800Z,4.10
2018-07-31T13:30:02.377Z,4.00
2018-07-31T13:31:02.222Z,4.20
2018-07-31T13:32:54.948Z,3.60
2018-07-31T13:33:54.799Z,3.70
2018-07-31T13:35:47.611Z,4.20
2018-07-31T13:36:47.470Z,4.00
2018-07-31T13:38:41.004Z,3.90
2018-07-31T13:39:40.883Z,4.00
2018-07-31T13:41:33.611Z,4.10
2018-07-31T13:42:33.463Z,4.10
2018-07-31T13:44:26.178Z,4.20
2018-07-31T13:45:26.087Z,4.10
2018-07-31T13:47:18.929Z,4.40
2018-07-31T13:48:18.812Z,4.40
2018-07-31T13:50:11.652Z,4.50
2018-07-31T13:51:11.468Z,4.20
2018-07-31T13:53:04.168Z,4.40
2018-07-31T13:54:04.040Z,4.30
2018-07-31T13:55:56.759Z,4.50
2018-07-31T13:56:56.609Z,4.30
2018-07-31T13:58:50.158Z,4.30
2018-07-31T13:59:50.037Z,4.40
2018-07-31T14:01:42.771Z,4.10
2018-07-31T14:02:42.607Z,4.10
2018-07-31T14:04:35.336Z,4.40
2018-07-31T14:05:35.221Z,4.10
2018-07-31T14:07:27.978Z,3.50
2018-07-31T14:08:27.804Z,3.90
2018-07-31T14:10:21.387Z,3.80
2018-07-31T14:11:21.249Z,4.00
2018-07-31T14:12:21.153Z,3.60
2018-07-31T14:13:21.033Z,3.70
2018-07-31T14:14:20.930Z,4.20
2018-07-31T14:15:20.832Z,4.00
2018-07-31T14:16:20.721Z,4.20
2018-07-31T14:17:20.630Z,4.00
2018-07-31T14:18:20.563Z,4.00
2018-07-31T14:19:20.549Z,4.00
2018-07-31T14:20:20.299Z,3.80
2018-07-31T14:21:20.191Z,3.50
2018-07-31T14:22:20.109Z,3.80
2018-07-31T14:23:20.688Z,3.60
2018-07-31T14:24:19.881Z,3.50